Briscoe, Texas
Current Conditions -  °F | °C
As of 1:55 PM on Saturday 20 Dec 2014 (Local Time) from KHHF Reporting Station
Clear Clear  
Wind Chill: 10°   Ceiling: Unl
Heat Index: 10°   Visibility: 10mi
Dew Point:   Wind: 9mph
Humidity: 63%   Direction: 190°S
Pressure: 30.05"   Gusts: NA
Location:  35.58°N, 100.29°W
Report Text: KHHF 201955Z AUTO 19008KT 10SM CLR 10/04 A3005 RMK AO2 T01030035
Loading
Personal Weather Stations






























Interactive Weather Map New forecast layout! Learn more

10-Day Weather Forecast

Advertisements
Track Severe Weather on mobile